createdAt,value
2023-05-17T00:02:01.000Z,8.10
2023-05-17T00:04:27.858Z,8.20
2023-05-17T00:06:54.571Z,8.20
2023-05-17T00:09:21.258Z,8.20
2023-05-17T00:11:47.913Z,8.30
2023-05-17T00:14:14.626Z,8.30
2023-05-17T00:16:41.487Z,8.30
2023-05-17T00:19:09.614Z,8.20
2023-05-17T00:21:36.629Z,8.20
2023-05-17T00:24:03.576Z,8.20
2023-05-17T00:26:30.403Z,8.30
2023-05-17T00:28:57.171Z,8.30
2023-05-17T00:31:23.879Z,8.40
2023-05-17T00:33:51.186Z,8.30
2023-05-17T00:36:17.950Z,8.20
2023-05-17T00:38:44.664Z,8.20
2023-05-17T00:41:12.965Z,8.20
2023-05-17T00:43:39.959Z,8.30
2023-05-17T00:46:06.680Z,8.40
2023-05-17T00:48:33.625Z,8.40
2023-05-17T00:51:00.596Z,8.30
2023-05-17T00:53:28.760Z,8.40
2023-05-17T00:55:55.965Z,8.40
2023-05-17T00:58:23.699Z,8.30
2023-05-17T01:00:51.497Z,8.40
2023-05-17T01:03:18.489Z,8.30
2023-05-17T01:05:45.423Z,8.40
2023-05-17T01:08:12.153Z,8.30
2023-05-17T01:10:51.953Z,8.40
2023-05-17T01:13:29.940Z,8.40
2023-05-17T01:16:18.631Z,8.30
2023-05-17T01:18:57.200Z,8.30
2023-05-17T01:22:06.177Z,8.00
2023-05-17T01:24:50.721Z,8.00
2023-05-17T01:27:19.971Z,7.80
2023-05-17T01:29:49.485Z,7.80
2023-05-17T01:32:17.742Z,7.90
2023-05-17T01:34:45.037Z,7.80
2023-05-17T01:37:11.938Z,7.80
2023-05-17T01:39:38.672Z,7.70
2023-05-17T01:42:13.788Z,7.60
2023-05-17T01:44:46.810Z,7.40
2023-05-17T01:47:31.905Z,7.40
2023-05-17T01:50:00.274Z,7.50
2023-05-17T01:52:37.790Z,7.40
2023-05-17T01:55:15.010Z,7.30
2023-05-17T01:57:44.758Z,7.20
2023-05-17T02:00:12.559Z,7.20
2023-05-17T02:02:42.260Z,7.20
2023-05-17T02:05:09.318Z,7.20
2023-05-17T02:07:39.822Z,7.20
2023-05-17T02:10:07.097Z,7.10
2023-05-17T02:12:33.787Z,7.10
2023-05-17T02:15:01.346Z,7.00
2023-05-17T02:17:28.186Z,7.00
2023-05-17T02:19:54.919Z,6.90
2023-05-17T02:22:21.618Z,7.00
2023-05-17T02:24:48.881Z,7.00
2023-05-17T02:27:15.661Z,7.10
2023-05-17T02:29:42.637Z,7.10
2023-05-17T02:32:09.351Z,7.00
2023-05-17T02:34:36.085Z,7.10
2023-05-17T02:37:02.788Z,7.00
2023-05-17T02:39:29.465Z,7.00
2023-05-17T02:41:56.198Z,6.90
2023-05-17T02:44:23.917Z,6.90
2023-05-17T02:46:50.611Z,6.80
2023-05-17T02:49:17.338Z,6.80
2023-05-17T02:51:44.204Z,6.80
2023-05-17T02:54:11.237Z,6.60
2023-05-17T02:56:37.940Z,6.60
2023-05-17T02:59:05.309Z,6.60
2023-05-17T03:01:33.591Z,6.60
2023-05-17T03:04:00.936Z,6.60
2023-05-17T03:06:28.062Z,6.60
2023-05-17T03:08:54.971Z,6.60
2023-05-17T03:11:22.268Z,6.60
2023-05-17T03:13:51.668Z,6.60
2023-05-17T03:16:21.762Z,6.60
2023-05-17T03:18:49.958Z,6.60
2023-05-17T03:21:17.019Z,6.60
2023-05-17T03:23:43.854Z,6.50
2023-05-17T03:26:10.568Z,6.50
2023-05-17T03:28:44.405Z,6.40
2023-05-17T03:31:11.584Z,6.30
2023-05-17T03:33:38.421Z,6.20
2023-05-17T03:36:05.665Z,6.20
2023-05-17T03:38:32.807Z,6.10
2023-05-17T03:40:59.515Z,6.10
2023-05-17T03:43:26.473Z,6.10
2023-05-17T03:45:53.277Z,6.10
2023-05-17T03:48:20.042Z,6.20
2023-05-17T03:50:46.764Z,6.10
2023-05-17T03:53:13.753Z,6.10
2023-05-17T03:55:40.495Z,6.10
2023-05-17T03:58:07.525Z,6.10
2023-05-17T04:00:34.379Z,6.10
2023-05-17T04:03:05.990Z,6.10
2023-05-17T04:05:33.178Z,6.10
2023-05-17T04:08:00.452Z,6.00
2023-05-17T04:10:27.562Z,6.00
2023-05-17T04:12:54.312Z,6.00
2023-05-17T04:15:22.015Z,6.10
2023-05-17T04:17:49.078Z,6.20
2023-05-17T04:20:15.956Z,6.20
2023-05-17T04:22:42.873Z,6.20
2023-05-17T04:25:12.014Z,6.40
2023-05-17T04:27:39.096Z,6.50
2023-05-17T04:30:08.213Z,6.60
2023-05-17T04:32:35.863Z,6.60
2023-05-17T04:35:03.065Z,6.80
2023-05-17T04:37:30.733Z,6.90
2023-05-17T04:40:02.317Z,7.10
2023-05-17T04:42:30.934Z,7.20
2023-05-17T04:44:59.100Z,7.30
2023-05-17T04:47:27.199Z,7.30
2023-05-17T04:49:53.985Z,7.30
2023-05-17T04:52:20.683Z,7.30
2023-05-17T04:54:47.749Z,7.40
2023-05-17T04:57:15.088Z,7.40
2023-05-17T04:59:55.455Z,7.40
2023-05-17T05:02:22.275Z,7.40
2023-05-17T05:04:48.976Z,7.50
2023-05-17T05:07:16.842Z,7.50
2023-05-17T05:09:44.754Z,7.60
2023-05-17T05:12:13.138Z,7.70
2023-05-17T05:14:40.089Z,7.70
2023-05-17T05:17:07.172Z,7.60
2023-05-17T05:19:34.549Z,7.70
2023-05-17T05:22:01.733Z,7.90
2023-05-17T05:24:31.597Z,9.10
2023-05-17T05:26:58.398Z,11.90
2023-05-17T05:29:25.888Z,14.80
2023-05-17T05:31:52.805Z,16.00
2023-05-17T05:34:20.712Z,16.30
2023-05-17T05:36:48.775Z,16.30
2023-05-17T05:39:16.246Z,17.20
2023-05-17T05:41:43.716Z,18.00
2023-05-17T05:44:10.481Z,18.10
2023-05-17T05:46:37.222Z,18.80
2023-05-17T05:49:05.179Z,18.30
2023-05-17T05:51:33.304Z,17.50
2023-05-17T05:54:00.946Z,16.40
2023-05-17T05:56:28.064Z,15.40
2023-05-17T05:58:56.968Z,15.40
2023-05-17T06:01:25.272Z,16.50
2023-05-17T06:03:51.988Z,15.00
2023-05-17T06:06:19.451Z,14.50
2023-05-17T06:08:47.288Z,13.20
2023-05-17T06:11:14.799Z,12.90
2023-05-17T06:13:41.604Z,12.10
2023-05-17T06:16:08.409Z,11.80
2023-05-17T06:18:35.444Z,12.00
2023-05-17T06:21:02.374Z,11.80
2023-05-17T06:23:29.059Z,11.70
2023-05-17T06:25:55.849Z,11.80
2023-05-17T06:28:23.747Z,11.00
2023-05-17T06:30:50.603Z,11.10
2023-05-17T06:33:17.539Z,11.10
2023-05-17T06:35:55.692Z,10.90
2023-05-17T06:38:23.774Z,11.10
2023-05-17T06:40:54.730Z,11.00
2023-05-17T06:43:22.045Z,11.10
2023-05-17T06:45:48.838Z,10.80
2023-05-17T06:48:16.000Z,11.20
2023-05-17T06:50:42.853Z,11.40
2023-05-17T06:53:09.581Z,11.10
2023-05-17T06:55:36.809Z,11.80
2023-05-17T06:58:03.631Z,12.20
2023-05-17T07:00:31.247Z,12.20
2023-05-17T07:02:58.428Z,11.80
2023-05-17T07:05:25.332Z,11.50
2023-05-17T07:07:52.168Z,12.10
2023-05-17T07:10:19.302Z,12.70
2023-05-17T07:12:46.154Z,13.20
2023-05-17T07:15:12.933Z,13.10
2023-05-17T07:17:40.232Z,13.10
2023-05-17T07:20:07.888Z,13.00
2023-05-17T07:22:36.732Z,12.90
2023-05-17T07:25:05.158Z,12.80
2023-05-17T07:27:31.871Z,12.50
2023-05-17T07:29:59.751Z,12.50
2023-05-17T07:32:26.498Z,12.40
2023-05-17T07:34:53.306Z,12.20
2023-05-17T07:37:20.030Z,12.20
2023-05-17T07:39:48.723Z,12.60
2023-05-17T07:42:15.653Z,12.30
2023-05-17T07:44:42.417Z,12.60
2023-05-17T07:47:09.245Z,12.70
2023-05-17T07:49:36.183Z,12.80
2023-05-17T07:52:03.858Z,13.10
2023-05-17T07:54:31.118Z,13.20
2023-05-17T07:56:57.844Z,12.50
2023-05-17T07:59:24.872Z,12.30
2023-05-17T08:01:52.572Z,12.30
2023-05-17T08:04:19.282Z,12.30
2023-05-17T08:06:48.178Z,12.30
2023-05-17T08:09:18.082Z,12.50
2023-05-17T08:11:47.856Z,12.70
2023-05-17T08:14:15.939Z,12.70
2023-05-17T08:16:43.918Z,13.00
2023-05-17T08:19:16.377Z,13.00
2023-05-17T08:21:46.359Z,13.30
2023-05-17T08:24:13.183Z,13.20
2023-05-17T08:26:41.088Z,13.40
2023-05-17T08:29:09.868Z,13.60
2023-05-17T08:31:36.713Z,13.40
2023-05-17T08:34:03.627Z,13.70
2023-05-17T08:36:30.444Z,13.90
2023-05-17T08:38:57.200Z,14.20
2023-05-17T08:41:23.935Z,14.20
2023-05-17T08:43:51.766Z,14.20
2023-05-17T08:46:21.632Z,13.70
2023-05-17T08:48:51.859Z,13.80
2023-05-17T08:51:19.675Z,13.80
2023-05-17T08:53:47.523Z,13.40
2023-05-17T08:56:17.434Z,12.70
2023-05-17T08:58:56.661Z,12.70
2023-05-17T09:01:26.353Z,12.80
2023-05-17T09:03:53.744Z,13.20
2023-05-17T09:06:21.488Z,12.80
2023-05-17T09:08:52.609Z,12.70
2023-05-17T09:11:27.619Z,13.00
2023-05-17T09:13:57.895Z,13.10
2023-05-17T09:16:25.085Z,13.00
2023-05-17T09:18:55.806Z,12.80
2023-05-17T09:21:23.890Z,12.60
2023-05-17T09:24:05.436Z,12.90
2023-05-17T09:26:44.485Z,13.50
2023-05-17T09:29:13.027Z,13.50
2023-05-17T09:31:41.032Z,13.70
2023-05-17T09:34:08.754Z,13.80
2023-05-17T09:36:37.349Z,13.70
2023-05-17T09:39:06.285Z,13.40
2023-05-17T09:41:47.988Z,13.50
2023-05-17T09:44:16.730Z,14.30
2023-05-17T09:46:48.696Z,14.70
2023-05-17T09:49:17.364Z,13.90
2023-05-17T09:51:47.477Z,13.80
2023-05-17T09:54:14.774Z,13.50
2023-05-17T09:56:42.112Z,13.30
2023-05-17T09:59:16.021Z,13.20
2023-05-17T10:01:45.184Z,13.00
2023-05-17T10:04:13.882Z,12.60
2023-05-17T10:09:14.252Z,12.90
2023-05-17T10:11:45.857Z,12.80
2023-05-17T10:14:27.129Z,13.20
2023-05-17T10:16:54.620Z,13.60
2023-05-17T10:19:21.820Z,13.50
2023-05-17T10:21:51.052Z,13.90
2023-05-17T10:24:19.828Z,13.50
2023-05-17T10:26:47.626Z,13.70
2023-05-17T10:29:16.033Z,13.30
2023-05-17T10:31:44.379Z,13.80
2023-05-17T10:34:12.232Z,14.20
2023-05-17T10:36:40.516Z,14.30
2023-05-17T10:39:10.576Z,14.10
2023-05-17T10:41:42.306Z,14.10
2023-05-17T10:44:13.205Z,14.00
2023-05-17T10:46:40.240Z,14.20
2023-05-17T10:49:07.101Z,14.20
2023-05-17T10:51:37.718Z,14.80
2023-05-17T10:54:04.480Z,15.00
2023-05-17T10:56:32.380Z,15.00
2023-05-17T10:59:19.687Z,14.40
2023-05-17T11:02:23.435Z,14.90
2023-05-17T11:04:56.127Z,15.20
2023-05-17T11:07:26.937Z,14.90
2023-05-17T11:10:10.041Z,14.80
2023-05-17T11:12:41.780Z,15.10
2023-05-17T11:15:08.866Z,15.20
2023-05-17T11:17:44.621Z,15.50
2023-05-17T11:20:32.957Z,15.50
2023-05-17T11:23:06.020Z,15.50
2023-05-17T11:25:36.171Z,15.40
2023-05-17T11:28:22.016Z,15.20
2023-05-17T11:30:53.507Z,15.20
2023-05-17T11:33:33.182Z,15.00
2023-05-17T11:36:13.298Z,14.60
2023-05-17T11:38:39.972Z,15.00
2023-05-17T11:41:26.809Z,15.20
2023-05-17T11:43:54.367Z,15.50
2023-05-17T11:46:24.013Z,15.00
2023-05-17T11:48:54.321Z,15.20
2023-05-17T11:51:24.671Z,15.40
2023-05-17T11:53:55.365Z,15.40
2023-05-17T11:56:29.156Z,14.90
2023-05-17T11:59:04.113Z,15.20
2023-05-17T12:01:43.326Z,15.30
2023-05-17T12:04:10.087Z,15.00
2023-05-17T12:06:37.328Z,15.30
2023-05-17T12:09:06.094Z,15.50
2023-05-17T12:11:33.601Z,15.60
2023-05-17T12:14:00.616Z,15.60
2023-05-17T12:16:29.611Z,16.00
2023-05-17T12:18:58.440Z,16.10
2023-05-17T12:21:25.405Z,16.00
2023-05-17T12:23:52.488Z,15.60
2023-05-17T12:26:21.761Z,15.60
2023-05-17T12:29:01.152Z,15.10
2023-05-17T12:31:36.775Z,15.50
2023-05-17T12:34:06.578Z,16.00
2023-05-17T12:36:33.902Z,16.00
2023-05-17T12:39:02.286Z,16.30
2023-05-17T12:41:30.694Z,16.80
2023-05-17T12:44:13.852Z,16.60
2023-05-17T12:46:42.798Z,16.30
2023-05-17T12:49:11.226Z,15.90
2023-05-17T12:51:45.625Z,15.60
2023-05-17T12:54:29.303Z,16.10
2023-05-17T12:56:56.344Z,16.10
2023-05-17T12:59:26.230Z,16.30
2023-05-17T13:01:56.526Z,16.40
2023-05-17T13:04:34.315Z,15.60
2023-05-17T13:07:04.073Z,16.00
2023-05-17T13:09:33.045Z,16.10
2023-05-17T13:12:07.621Z,16.60
2023-05-17T13:14:46.742Z,16.70
2023-05-17T13:17:26.240Z,16.70
2023-05-17T13:19:54.591Z,16.60
2023-05-17T13:22:21.307Z,16.40
2023-05-17T13:24:48.107Z,15.70
2023-05-17T13:27:14.951Z,15.40
2023-05-17T13:29:43.136Z,15.90
2023-05-17T13:32:13.763Z,15.70
2023-05-17T13:34:41.199Z,15.80
2023-05-17T13:37:11.497Z,15.90
2023-05-17T13:39:39.107Z,15.70
2023-05-17T13:42:06.087Z,15.20
2023-05-17T13:44:33.014Z,15.60
2023-05-17T13:46:59.764Z,15.40
2023-05-17T13:49:28.176Z,15.90
2023-05-17T13:51:54.905Z,16.00
2023-05-17T13:54:23.701Z,16.20
2023-05-17T13:56:50.424Z,16.50
2023-05-17T13:59:17.166Z,16.50
2023-05-17T14:01:43.982Z,15.90
2023-05-17T14:04:10.899Z,16.00
2023-05-17T14:06:39.190Z,15.90
2023-05-17T14:09:06.289Z,16.20
2023-05-17T14:11:33.764Z,16.60
2023-05-17T14:14:01.282Z,16.60
2023-05-17T14:16:28.127Z,16.80
2023-05-17T14:18:54.974Z,16.40
2023-05-17T14:21:21.723Z,16.30
2023-05-17T14:23:48.508Z,16.50
2023-05-17T14:26:15.467Z,16.20
2023-05-17T14:28:42.252Z,16.00
2023-05-17T14:31:10.158Z,15.30
2023-05-17T14:33:37.116Z,15.30
2023-05-17T14:36:04.260Z,15.40
2023-05-17T14:38:31.196Z,15.70
2023-05-17T14:40:58.996Z,15.80
2023-05-17T14:43:26.214Z,15.70
2023-05-17T14:45:52.918Z,15.60
2023-05-17T14:48:19.932Z,15.20
2023-05-17T14:50:46.682Z,15.20
2023-05-17T14:53:13.544Z,15.60
2023-05-17T14:55:40.336Z,15.90
2023-05-17T14:58:07.059Z,15.50
2023-05-17T15:00:34.698Z,15.60
2023-05-17T15:03:01.483Z,15.70
2023-05-17T15:05:28.941Z,15.50
2023-05-17T15:07:55.932Z,15.70
2023-05-17T15:10:22.872Z,15.90
2023-05-17T15:12:49.773Z,15.90
2023-05-17T15:15:16.896Z,15.60
2023-05-17T15:17:43.632Z,15.50
2023-05-17T15:20:10.870Z,15.60
2023-05-17T15:22:37.736Z,15.80
2023-05-17T15:25:05.901Z,16.00
2023-05-17T15:27:32.682Z,16.20
2023-05-17T15:29:59.395Z,16.20
2023-05-17T15:32:26.542Z,16.30
2023-05-17T15:34:53.377Z,16.30
2023-05-17T15:37:20.132Z,16.30
2023-05-17T15:39:47.621Z,16.30
2023-05-17T15:42:14.368Z,16.30
2023-05-17T15:44:41.058Z,16.20
2023-05-17T15:47:07.856Z,16.20
2023-05-17T15:49:34.884Z,16.30
2023-05-17T15:52:01.892Z,16.30
2023-05-17T15:54:28.734Z,16.00
2023-05-17T15:56:55.842Z,16.00
2023-05-17T15:59:22.703Z,15.90
2023-05-17T16:01:49.681Z,15.70
2023-05-17T16:04:16.688Z,15.50
2023-05-17T16:06:43.587Z,15.50
2023-05-17T16:09:11.619Z,15.80
2023-05-17T16:11:38.350Z,16.00
2023-05-17T16:14:05.133Z,16.30
2023-05-17T16:16:31.871Z,16.30
2023-05-17T16:18:58.994Z,16.10
2023-05-17T16:21:26.049Z,16.10
2023-05-17T16:23:53.006Z,15.90
2023-05-17T16:26:19.828Z,16.00
2023-05-17T16:28:46.909Z,16.20
2023-05-17T16:31:13.724Z,16.00
2023-05-17T16:33:41.485Z,15.80
2023-05-17T16:36:08.858Z,15.70
2023-05-17T16:38:35.852Z,15.70
2023-05-17T16:41:03.340Z,15.70
2023-05-17T16:43:30.937Z,15.40
2023-05-17T16:45:57.693Z,15.40
2023-05-17T16:48:24.531Z,15.40
2023-05-17T16:50:51.555Z,15.40
2023-05-17T16:53:18.627Z,15.40
2023-05-17T16:55:45.667Z,15.50
2023-05-17T16:58:13.011Z,15.50
2023-05-17T17:00:39.794Z,15.60
2023-05-17T17:03:09.227Z,15.70
2023-05-17T17:05:36.759Z,15.70
2023-05-17T17:08:03.613Z,15.70
2023-05-17T17:10:30.641Z,15.50
2023-05-17T17:12:57.597Z,15.50
2023-05-17T17:15:25.258Z,15.60
2023-05-17T17:17:52.178Z,15.70
2023-05-17T17:20:19.669Z,15.60
2023-05-17T17:22:46.767Z,15.60
2023-05-17T17:25:13.608Z,15.60
2023-05-17T17:27:40.657Z,15.60
2023-05-17T17:30:07.933Z,15.50
2023-05-17T17:32:34.720Z,15.10
2023-05-17T17:35:01.593Z,15.10
2023-05-17T17:37:28.415Z,14.90
2023-05-17T17:39:55.324Z,15.00
2023-05-17T17:42:22.078Z,15.10
2023-05-17T17:44:49.359Z,15.10
2023-05-17T17:47:16.190Z,15.30
2023-05-17T17:49:42.907Z,15.40
2023-05-17T17:52:09.598Z,15.40
2023-05-17T17:54:36.282Z,15.30
2023-05-17T17:57:03.218Z,15.10
2023-05-17T17:59:30.070Z,15.10
2023-05-17T18:01:56.952Z,15.20
2023-05-17T18:04:23.763Z,15.10
2023-05-17T18:06:50.658Z,15.20
2023-05-17T18:09:17.362Z,15.00
2023-05-17T18:11:44.107Z,14.80
2023-05-17T18:14:11.002Z,14.60
2023-05-17T18:16:37.978Z,14.70
2023-05-17T18:19:04.826Z,14.70
2023-05-17T18:21:31.665Z,14.60
2023-05-17T18:23:58.555Z,14.60
2023-05-17T18:26:25.827Z,14.50
2023-05-17T18:28:52.569Z,14.40
2023-05-17T18:31:19.347Z,14.40
2023-05-17T18:33:46.160Z,14.30
2023-05-17T18:36:12.896Z,14.30
2023-05-17T18:38:39.717Z,14.20
2023-05-17T18:41:06.769Z,14.10
2023-05-17T18:43:33.882Z,14.00
2023-05-17T18:46:00.582Z,14.00
2023-05-17T18:48:27.818Z,13.90
2023-05-17T18:50:54.904Z,13.80
2023-05-17T18:53:21.614Z,13.90
2023-05-17T18:55:48.317Z,13.80
2023-05-17T18:58:15.010Z,13.60
2023-05-17T19:00:41.764Z,13.60
2023-05-17T19:03:08.566Z,13.50
2023-05-17T19:05:35.487Z,13.40
2023-05-17T19:08:02.225Z,13.20
2023-05-17T19:10:29.269Z,13.20
2023-05-17T19:12:56.211Z,13.10
2023-05-17T19:15:22.987Z,13.00
2023-05-17T19:17:49.745Z,12.90
2023-05-17T19:20:16.769Z,12.80
2023-05-17T19:22:43.511Z,12.70
2023-05-17T19:25:10.366Z,12.60
2023-05-17T19:27:37.170Z,12.50
2023-05-17T19:30:04.966Z,12.40
2023-05-17T19:32:33.116Z,12.20
2023-05-17T19:35:01.343Z,12.20
2023-05-17T19:37:28.601Z,12.20
2023-05-17T19:39:55.589Z,12.00
2023-05-17T19:42:22.290Z,11.90
2023-05-17T19:44:49.096Z,11.80
2023-05-17T19:47:15.807Z,11.70
2023-05-17T19:49:43.254Z,11.70
2023-05-17T19:52:10.248Z,11.50
2023-05-17T19:54:37.137Z,11.40
2023-05-17T19:57:04.052Z,11.30
2023-05-17T19:59:30.818Z,11.20
2023-05-17T20:01:57.847Z,11.10
2023-05-17T20:04:24.638Z,11.00
2023-05-17T20:06:51.913Z,11.00
2023-05-17T20:09:18.638Z,11.00
2023-05-17T20:11:45.387Z,10.90
2023-05-17T20:14:12.301Z,10.90
2023-05-17T20:16:39.316Z,10.80
2023-05-17T20:19:06.476Z,10.60
2023-05-17T20:21:33.452Z,10.50
2023-05-17T20:24:05.274Z,10.40
2023-05-17T20:26:36.244Z,10.20
2023-05-17T20:29:07.931Z,10.20
2023-05-17T20:31:35.805Z,10.20
2023-05-17T20:34:03.579Z,10.10
2023-05-17T20:36:31.241Z,10.10
2023-05-17T20:38:57.977Z,10.00
2023-05-17T20:41:24.736Z,9.90
2023-05-17T20:43:51.756Z,9.80
2023-05-17T20:46:18.751Z,9.70
2023-05-17T20:48:47.680Z,9.60
2023-05-17T20:51:15.106Z,9.60
2023-05-17T20:53:41.974Z,9.50
2023-05-17T20:56:08.824Z,9.50
2023-05-17T20:58:35.795Z,9.40
2023-05-17T21:01:02.683Z,9.40
2023-05-17T21:03:33.273Z,9.30
2023-05-17T21:06:01.553Z,9.20
2023-05-17T21:08:28.501Z,9.20
2023-05-17T21:10:56.444Z,9.10
2023-05-17T21:13:25.509Z,9.00
2023-05-17T21:15:53.763Z,9.00
2023-05-17T21:18:20.936Z,9.00
2023-05-17T21:20:50.002Z,9.00
2023-05-17T21:23:17.045Z,8.90
2023-05-17T21:25:44.430Z,8.90
2023-05-17T21:28:11.165Z,8.90
2023-05-17T21:30:37.921Z,8.70
2023-05-17T21:33:05.499Z,8.70
2023-05-17T21:35:32.523Z,8.50
2023-05-17T21:37:59.265Z,8.50
2023-05-17T21:40:26.315Z,8.50
2023-05-17T21:42:53.448Z,8.50
2023-05-17T21:45:20.383Z,8.50
2023-05-17T21:47:47.217Z,8.50
2023-05-17T21:50:14.024Z,8.40
2023-05-17T21:52:40.821Z,8.40
2023-05-17T21:55:08.459Z,8.40
2023-05-17T21:57:38.364Z,8.40
2023-05-17T22:00:07.680Z,8.30
2023-05-17T22:02:35.834Z,8.30
2023-05-17T22:05:02.769Z,8.20
2023-05-17T22:07:29.598Z,8.20
2023-05-17T22:09:56.304Z,8.10
2023-05-17T22:12:25.075Z,8.10
2023-05-17T22:14:54.133Z,8.10
2023-05-17T22:17:29.568Z,8.10
2023-05-17T22:20:07.421Z,8.00
2023-05-17T22:22:34.182Z,7.90
2023-05-17T22:25:01.572Z,7.90
2023-05-17T22:27:28.313Z,7.90
2023-05-17T22:29:55.090Z,7.80
2023-05-17T22:32:22.699Z,7.80
2023-05-17T22:34:50.404Z,7.70
2023-05-17T22:37:17.578Z,7.80
2023-05-17T22:39:44.386Z,7.70
2023-05-17T22:42:11.218Z,7.60
2023-05-17T22:44:37.970Z,7.60
2023-05-17T22:47:05.382Z,7.70
2023-05-17T22:49:35.810Z,7.60
2023-05-17T22:52:07.492Z,7.70
2023-05-17T22:54:35.981Z,7.60
2023-05-17T22:57:04.179Z,7.60
2023-05-17T22:59:32.726Z,7.50
2023-05-17T23:01:59.939Z,7.50
2023-05-17T23:04:27.328Z,7.50
2023-05-17T23:06:54.758Z,7.40
2023-05-17T23:09:22.121Z,7.50
2023-05-17T23:11:50.304Z,7.60
2023-05-17T23:14:17.428Z,7.40
2023-05-17T23:16:44.362Z,7.50
2023-05-17T23:19:11.174Z,7.50
2023-05-17T23:21:39.491Z,7.40
2023-05-17T23:24:07.923Z,7.40
2023-05-17T23:26:34.931Z,7.30
2023-05-17T23:29:03.429Z,7.40
2023-05-17T23:31:30.419Z,7.30
2023-05-17T23:33:57.260Z,7.20
2023-05-17T23:36:23.974Z,7.10
2023-05-17T23:38:50.765Z,7.20
2023-05-17T23:41:18.014Z,7.10
2023-05-17T23:43:45.171Z,7.20
2023-05-17T23:46:13.672Z,7.00
2023-05-17T23:48:40.447Z,7.10
2023-05-17T23:51:07.173Z,7.20
2023-05-17T23:53:34.116Z,7.20
2023-05-17T23:56:01.488Z,7.30
2023-05-17T23:58:28.247Z,7.30
